createdAt,value
2017-06-20T00:00:46.753Z,23.79
2017-06-20T00:01:55.714Z,23.75
2017-06-20T00:03:04.685Z,23.79
2017-06-20T00:04:13.951Z,23.72
2017-06-20T00:05:22.932Z,23.78
2017-06-20T00:06:32.525Z,23.65
2017-06-20T00:07:42.963Z,23.68
2017-06-20T00:08:52.934Z,23.61
2017-06-20T00:10:02.235Z,23.58
2017-06-20T00:11:11.204Z,23.7
2017-06-20T00:12:20.515Z,23.66
2017-06-20T00:13:30.135Z,23.58
2017-06-20T00:14:39.101Z,23.61
2017-06-20T00:15:48.567Z,23.57
2017-06-20T00:16:57.957Z,23.54
2017-06-20T00:18:07.445Z,23.6
2017-06-20T00:19:16.407Z,23.7
2017-06-20T00:20:25.705Z,23.58
2017-06-20T00:21:35.057Z,23.61
2017-06-20T00:22:44.016Z,23.57
2017-06-20T00:23:53.900Z,23.63
2017-06-20T00:25:02.957Z,23.54
2017-06-20T00:26:12.023Z,23.58
2017-06-20T00:27:21.287Z,23.51
2017-06-20T00:28:30.337Z,23.51
2017-06-20T00:29:40.018Z,23.53
2017-06-20T00:30:50.897Z,23.46
2017-06-20T00:32:01.295Z,23.51
2017-06-20T00:33:10.508Z,23.51
2017-06-20T00:34:19.785Z,23.5
2017-06-20T00:35:29.547Z,23.43
2017-06-20T00:36:38.571Z,23.38
2017-06-20T00:37:47.570Z,23.47
2017-06-20T00:38:56.934Z,23.48
2017-06-20T00:40:07.454Z,23.46
2017-06-20T00:41:16.737Z,23.46
2017-06-20T00:42:25.701Z,23.43
2017-06-20T00:43:34.669Z,23.46
2017-06-20T00:44:43.930Z,23.51
2017-06-20T00:45:52.926Z,23.48
2017-06-20T00:47:01.886Z,23.43
2017-06-20T00:48:10.879Z,23.48
2017-06-20T00:49:19.842Z,23.51
2017-06-20T00:50:29.068Z,23.38
2017-06-20T00:51:38.027Z,23.4
2017-06-20T00:52:46.983Z,23.42
2017-06-20T00:53:55.940Z,23.4
2017-06-20T00:55:04.903Z,23.35
2017-06-20T00:56:14.168Z,23.42
2017-06-20T00:57:23.126Z,23.42
2017-06-20T00:58:32.089Z,23.4
2017-06-20T00:59:41.050Z,23.43
2017-06-20T01:00:50.012Z,23.42
2017-06-20T01:01:59.230Z,23.42
2017-06-20T01:03:08.279Z,23.43
2017-06-20T01:04:17.241Z,23.4
2017-06-20T01:05:26.206Z,23.32
2017-06-20T01:06:35.167Z,23.32
2017-06-20T01:07:44.514Z,23.33
2017-06-20T01:08:53.474Z,23.32
2017-06-20T01:10:02.519Z,23.36
2017-06-20T01:11:11.483Z,23.35
2017-06-20T01:12:20.441Z,23.27
2017-06-20T01:13:29.652Z,23.33
2017-06-20T01:14:38.615Z,23.27
2017-06-20T01:15:47.662Z,23.27
2017-06-20T01:16:56.622Z,23.35
2017-06-20T01:18:05.588Z,23.27
2017-06-20T01:19:14.797Z,23.28
2017-06-20T01:20:23.758Z,23.27
2017-06-20T01:21:32.719Z,23.28
2017-06-20T01:22:41.685Z,23.2
2017-06-20T01:23:50.685Z,23.22
2017-06-20T01:24:59.946Z,23.16
2017-06-20T01:26:08.903Z,23.2
2017-06-20T01:27:17.866Z,23.2
2017-06-20T01:28:26.823Z,23.25
2017-06-20T01:29:35.781Z,23.15
2017-06-20T01:30:44.999Z,23.19
2017-06-20T01:31:53.962Z,23.16
2017-06-20T01:33:02.921Z,23.2
2017-06-20T01:34:11.880Z,23.16
2017-06-20T01:35:20.836Z,23.15
2017-06-20T01:36:30.078Z,23.19
2017-06-20T01:37:39.041Z,23.13
2017-06-20T01:38:48.004Z,23.13
2017-06-20T01:39:56.963Z,23.12
2017-06-20T01:41:05.927Z,23.07
2017-06-20T01:42:15.522Z,23.04
2017-06-20T01:43:24.483Z,23.07
2017-06-20T01:44:33.438Z,23.09
2017-06-20T01:45:42.400Z,23.1
2017-06-20T01:46:51.363Z,23.01
2017-06-20T01:48:00.625Z,23.02
2017-06-20T01:49:09.588Z,23.05
2017-06-20T01:50:18.553Z,23.07
2017-06-20T01:51:27.603Z,23.05
2017-06-20T01:52:36.564Z,23.05
2017-06-20T01:53:45.820Z,23.05
2017-06-20T01:54:54.781Z,23.05
2017-06-20T01:56:03.744Z,23.02
2017-06-20T01:57:12.715Z,23
2017-06-20T01:58:21.996Z,22.92
2017-06-20T01:59:31.205Z,22.95
2017-06-20T02:00:40.492Z,22.92
2017-06-20T02:01:49.537Z,22.95
2017-06-20T02:02:58.496Z,23.01
2017-06-20T02:04:07.455Z,22.95
2017-06-20T02:05:17.126Z,22.94
2017-06-20T02:06:26.085Z,22.91
2017-06-20T02:07:35.045Z,22.92
2017-06-20T02:08:44.006Z,22.95
2017-06-20T02:09:52.963Z,23
2017-06-20T02:11:02.234Z,22.91
2017-06-20T02:12:11.519Z,22.92
2017-06-20T02:13:20.483Z,22.91
2017-06-20T02:14:29.443Z,22.91
2017-06-20T02:15:38.410Z,22.91
2017-06-20T02:16:47.666Z,22.86
2017-06-20T02:17:56.628Z,22.9
2017-06-20T02:19:05.591Z,22.82
2017-06-20T02:20:14.550Z,22.82
2017-06-20T02:21:23.508Z,22.85
2017-06-20T02:22:32.716Z,22.91
2017-06-20T02:23:41.678Z,22.83
2017-06-20T02:24:50.646Z,22.91
2017-06-20T02:25:59.609Z,22.82
2017-06-20T02:27:08.573Z,22.83
2017-06-20T02:28:17.785Z,22.83
2017-06-20T02:29:26.741Z,22.75
2017-06-20T02:30:35.704Z,22.72
2017-06-20T02:31:44.674Z,22.79
2017-06-20T02:32:53.637Z,22.72
2017-06-20T02:34:02.843Z,22.67
2017-06-20T02:35:11.808Z,22.68
2017-06-20T02:36:20.770Z,22.75
2017-06-20T02:37:29.733Z,22.72
2017-06-20T02:38:38.692Z,22.82
2017-06-20T02:39:47.956Z,22.82
2017-06-20T02:40:56.920Z,22.73
2017-06-20T02:42:05.888Z,22.72
2017-06-20T02:43:14.858Z,22.77
2017-06-20T02:44:23.821Z,22.8
2017-06-20T02:45:33.078Z,22.72
2017-06-20T02:46:42.041Z,22.7
2017-06-20T02:47:51.005Z,22.79
2017-06-20T02:49:00.293Z,22.75
2017-06-20T02:50:09.903Z,22.75
2017-06-20T02:51:19.163Z,22.75
2017-06-20T02:52:28.123Z,22.72
2017-06-20T02:53:37.089Z,22.76
2017-06-20T02:54:46.049Z,22.7
2017-06-20T02:55:55.008Z,22.72
2017-06-20T02:57:04.225Z,22.6
2017-06-20T02:58:13.182Z,22.72
2017-06-20T02:59:22.149Z,22.68
2017-06-20T03:00:31.105Z,22.64
2017-06-20T03:01:40.071Z,22.55
2017-06-20T03:02:49.282Z,22.58
2017-06-20T03:03:58.248Z,22.62
2017-06-20T03:05:07.209Z,22.58
2017-06-20T03:06:16.166Z,22.57
2017-06-20T03:07:25.130Z,22.64
2017-06-20T03:08:34.342Z,22.51
2017-06-20T03:09:43.303Z,22.65
2017-06-20T03:10:52.263Z,22.52
2017-06-20T03:12:01.218Z,22.51
2017-06-20T03:13:10.177Z,22.52
2017-06-20T03:14:19.476Z,22.46
2017-06-20T03:15:28.437Z,22.46
2017-06-20T03:16:37.401Z,22.47
2017-06-20T03:17:46.361Z,22.43
2017-06-20T03:18:55.323Z,22.51
2017-06-20T03:20:04.889Z,22.52
2017-06-20T03:21:14.261Z,22.46
2017-06-20T03:22:23.232Z,22.49
2017-06-20T03:23:32.197Z,22.47
2017-06-20T03:24:41.483Z,22.51
2017-06-20T03:25:50.730Z,22.43
2017-06-20T03:26:59.702Z,22.43
2017-06-20T03:28:08.981Z,22.37
2017-06-20T03:29:17.940Z,22.43
2017-06-20T03:30:26.899Z,22.36
2017-06-20T03:31:36.107Z,22.46
2017-06-20T03:32:45.066Z,22.4
2017-06-20T03:33:54.037Z,22.33
2017-06-20T03:35:02.998Z,22.39
2017-06-20T03:36:12.043Z,22.4
2017-06-20T03:37:21.310Z,22.4
2017-06-20T03:38:30.303Z,22.42
2017-06-20T03:39:39.266Z,22.42
2017-06-20T03:40:48.224Z,22.39
2017-06-20T03:41:57.183Z,22.4
2017-06-20T03:43:06.450Z,22.36
2017-06-20T03:44:15.413Z,22.35
2017-06-20T03:45:24.378Z,22.36
2017-06-20T03:46:33.340Z,22.36
2017-06-20T03:47:42.298Z,22.37
2017-06-20T03:48:51.559Z,22.37
2017-06-20T03:50:00.516Z,22.36
2017-06-20T03:51:09.477Z,22.31
2017-06-20T03:52:18.762Z,22.33
2017-06-20T03:53:27.721Z,22.4
2017-06-20T03:54:36.935Z,22.37
2017-06-20T03:55:45.894Z,22.39
2017-06-20T03:56:54.857Z,22.37
2017-06-20T03:58:03.814Z,22.28
2017-06-20T03:59:12.776Z,22.36
2017-06-20T04:00:22.123Z,22.35
2017-06-20T04:01:31.079Z,22.35
2017-06-20T04:02:40.040Z,22.37
2017-06-20T04:03:48.999Z,22.36
2017-06-20T04:04:57.955Z,22.39
2017-06-20T04:06:07.157Z,22.43
2017-06-20T04:07:16.116Z,22.39
2017-06-20T04:08:25.077Z,22.33
2017-06-20T04:09:34.034Z,22.31
2017-06-20T04:10:42.996Z,22.42
2017-06-20T04:11:52.255Z,22.43
2017-06-20T04:13:01.216Z,22.37
2017-06-20T04:14:10.178Z,22.45
2017-06-20T04:15:19.138Z,22.45
2017-06-20T04:16:28.103Z,22.46
2017-06-20T04:17:37.450Z,22.45
2017-06-20T04:18:46.738Z,22.47
2017-06-20T04:19:55.698Z,22.51
2017-06-20T04:21:04.657Z,22.43
2017-06-20T04:22:13.616Z,22.54
2017-06-20T04:23:22.882Z,22.52
2017-06-20T04:24:31.838Z,22.55
2017-06-20T04:25:41.122Z,22.51
2017-06-20T04:26:50.085Z,22.54
2017-06-20T04:27:59.043Z,22.57
2017-06-20T04:29:08.309Z,22.54
2017-06-20T04:30:17.278Z,22.68
2017-06-20T04:31:26.245Z,22.64
2017-06-20T04:32:35.208Z,22.64
2017-06-20T04:33:44.172Z,22.61
2017-06-20T04:34:53.434Z,22.68
2017-06-20T04:36:02.488Z,22.77
2017-06-20T04:37:11.448Z,22.75
2017-06-20T04:38:20.410Z,22.76
2017-06-20T04:39:29.374Z,22.76
2017-06-20T04:40:38.639Z,22.83
2017-06-20T04:41:47.604Z,22.75
2017-06-20T04:42:56.572Z,22.76
2017-06-20T04:44:05.538Z,22.7
2017-06-20T04:45:14.497Z,22.79
2017-06-20T04:46:23.795Z,22.83
2017-06-20T04:47:32.759Z,22.91
2017-06-20T04:48:41.719Z,22.83
2017-06-20T04:49:50.682Z,22.83
2017-06-20T04:50:59.642Z,22.82
2017-06-20T04:52:08.910Z,22.86
2017-06-20T04:53:17.874Z,22.82
2017-06-20T04:54:26.835Z,22.88
2017-06-20T04:55:35.801Z,22.95
2017-06-20T04:56:44.766Z,22.95
2017-06-20T04:57:53.981Z,22.92
2017-06-20T04:59:02.945Z,22.88
2017-06-20T05:00:11.908Z,22.91
2017-06-20T05:01:20.869Z,22.94
2017-06-20T05:02:29.839Z,22.9
2017-06-20T05:03:39.050Z,23.01
2017-06-20T05:04:48.011Z,22.94
2017-06-20T05:05:56.977Z,23
2017-06-20T05:07:05.944Z,22.9
2017-06-20T05:08:14.906Z,22.91
2017-06-20T05:09:24.119Z,23.09
2017-06-20T05:10:33.132Z,23.12
2017-06-20T05:11:42.099Z,23.04
2017-06-20T05:12:51.065Z,23.04
2017-06-20T05:14:00.023Z,23.04
2017-06-20T05:15:09.239Z,23.12
2017-06-20T05:16:18.197Z,23.1
2017-06-20T05:17:27.161Z,23.12
2017-06-20T05:18:36.121Z,23.17
2017-06-20T05:19:45.085Z,23.23
2017-06-20T05:20:54.296Z,23.2
2017-06-20T05:22:03.256Z,23.32
2017-06-20T05:23:12.218Z,23.38
2017-06-20T05:24:21.178Z,23.28
2017-06-20T05:25:30.139Z,23.36
2017-06-20T05:26:39.354Z,23.42
2017-06-20T05:27:48.486Z,23.5
2017-06-20T05:28:57.450Z,23.46
2017-06-20T05:30:06.416Z,23.51
2017-06-20T05:31:15.377Z,23.6
2017-06-20T05:32:24.636Z,23.61
2017-06-20T05:33:33.598Z,23.53
2017-06-20T05:34:42.558Z,23.66
2017-06-20T05:35:51.520Z,23.58
2017-06-20T05:37:00.483Z,23.65
2017-06-20T05:38:09.747Z,23.7
2017-06-20T05:39:18.706Z,23.83
2017-06-20T05:40:27.670Z,23.78
2017-06-20T05:41:36.627Z,23.83
2017-06-20T05:42:45.582Z,23.85
2017-06-20T05:43:54.790Z,23.88
2017-06-20T05:45:03.755Z,23.9
2017-06-20T05:46:12.721Z,23.87
2017-06-20T05:47:21.687Z,23.85
2017-06-20T05:48:30.643Z,23.94
2017-06-20T05:49:39.857Z,23.97
2017-06-20T05:50:48.819Z,23.94
2017-06-20T05:51:57.781Z,23.95
2017-06-20T05:53:06.746Z,24.08
2017-06-20T05:54:15.705Z,24.06
2017-06-20T05:55:24.914Z,24.12
2017-06-20T05:56:33.873Z,24.12
2017-06-20T05:57:42.834Z,24.18
2017-06-20T05:58:51.794Z,24.15
2017-06-20T06:00:00.752Z,24.21
2017-06-20T06:01:10.104Z,24.27
2017-06-20T06:02:19.079Z,24.34
2017-06-20T06:03:28.218Z,24.34
2017-06-20T06:04:37.573Z,24.35
2017-06-20T06:05:46.536Z,24.3
2017-06-20T06:06:55.796Z,24.35
2017-06-20T06:08:04.834Z,24.34
2017-06-20T06:09:13.843Z,24.42
2017-06-20T06:10:22.834Z,24.4
2017-06-20T06:11:31.794Z,24.52
2017-06-20T06:12:41.057Z,24.58
2017-06-20T06:13:50.089Z,24.58
2017-06-20T06:14:59.050Z,24.55
2017-06-20T06:16:08.009Z,24.55
2017-06-20T06:17:16.971Z,24.61
2017-06-20T06:18:26.224Z,24.6
2017-06-20T06:19:35.189Z,24.6
2017-06-20T06:20:44.234Z,24.65
2017-06-20T06:21:53.196Z,24.57
2017-06-20T06:23:02.634Z,24.52
2017-06-20T06:24:13.263Z,24.64
2017-06-20T06:25:22.629Z,24.76
2017-06-20T06:26:32.007Z,24.73
2017-06-20T06:27:40.976Z,24.87
2017-06-20T06:28:50.268Z,24.98
2017-06-20T06:29:59.481Z,24.91
2017-06-20T06:31:08.451Z,24.98
2017-06-20T06:32:17.414Z,24.91
2017-06-20T06:33:26.376Z,24.95
2017-06-20T06:34:35.427Z,24.95
2017-06-20T06:35:44.632Z,24.95
2017-06-20T06:36:53.589Z,25
2017-06-20T06:38:02.559Z,25
2017-06-20T06:39:11.521Z,25.02
2017-06-20T06:40:20.494Z,25.08
2017-06-20T06:41:29.767Z,24.96
2017-06-20T06:42:38.817Z,25.02
2017-06-20T06:43:47.805Z,25.06
2017-06-20T06:44:56.786Z,25.03
2017-06-20T06:46:05.832Z,25.15
2017-06-20T06:47:15.095Z,25.15
2017-06-20T06:48:24.058Z,25.23
2017-06-20T06:49:33.021Z,25.06
2017-06-20T06:50:42.074Z,25.09
2017-06-20T06:51:51.030Z,25.24
2017-06-20T06:53:00.302Z,25.21
2017-06-20T06:54:09.276Z,25.18
2017-06-20T06:55:18.238Z,25.24
2017-06-20T06:56:27.553Z,25.3
2017-06-20T06:57:36.520Z,25.35
2017-06-20T06:58:45.735Z,25.35
2017-06-20T06:59:54.731Z,25.43
2017-06-20T07:01:03.699Z,25.43
2017-06-20T07:02:12.987Z,25.5
2017-06-20T07:03:21.949Z,25.52
2017-06-20T07:04:31.211Z,25.54
2017-06-20T07:05:40.497Z,25.52
2017-06-20T07:06:49.471Z,25.55
2017-06-20T07:07:58.522Z,25.57
2017-06-20T07:09:07.483Z,25.58
2017-06-20T07:10:16.698Z,25.6
2017-06-20T07:11:25.752Z,25.7
2017-06-20T07:12:34.714Z,25.65
2017-06-20T07:13:43.677Z,25.69
2017-06-20T07:14:52.640Z,25.73
2017-06-20T07:16:02.351Z,25.69
2017-06-20T07:17:12.028Z,25.82
2017-06-20T07:18:21.152Z,25.79
2017-06-20T07:19:31.211Z,25.75
2017-06-20T07:20:41.115Z,25.92
2017-06-20T07:21:50.331Z,25.88
2017-06-20T07:22:59.624Z,25.85
2017-06-20T07:24:08.590Z,25.94
2017-06-20T07:25:17.559Z,25.91
2017-06-20T07:26:26.526Z,25.94
2017-06-20T07:27:35.789Z,25.99
2017-06-20T07:28:44.771Z,26.07
2017-06-20T07:29:53.740Z,26.01
2017-06-20T07:31:02.706Z,26.1
2017-06-20T07:32:11.674Z,26.07
2017-06-20T07:33:20.938Z,26.09
2017-06-20T07:34:29.917Z,26.17
2017-06-20T07:35:39.298Z,26.17
2017-06-20T07:36:48.364Z,26.26
2017-06-20T07:37:57.329Z,26.21
2017-06-20T07:39:06.595Z,26.29
2017-06-20T07:40:15.559Z,26.29
2017-06-20T07:41:24.521Z,26.23
2017-06-20T07:42:33.807Z,26.35
2017-06-20T07:43:42.776Z,26.33
2017-06-20T07:44:52.060Z,26.37
2017-06-20T07:46:01.482Z,26.3
2017-06-20T07:47:11.716Z,26.36
2017-06-20T07:48:20.676Z,26.44
2017-06-20T07:49:29.644Z,26.39
2017-06-20T07:50:38.857Z,26.47
2017-06-20T07:51:47.912Z,26.6
2017-06-20T07:52:57.521Z,26.58
2017-06-20T07:54:06.485Z,26.58
2017-06-20T07:55:15.447Z,26.69
2017-06-20T07:56:24.750Z,26.67
2017-06-20T07:57:34.061Z,26.65
2017-06-20T07:58:43.236Z,26.77
2017-06-20T07:59:52.194Z,26.77
2017-06-20T08:01:01.154Z,26.85
2017-06-20T08:02:10.366Z,26.76
2017-06-20T08:03:19.328Z,26.81
2017-06-20T08:04:28.295Z,26.88
2017-06-20T08:05:37.364Z,26.88
2017-06-20T08:06:46.328Z,26.94
2017-06-20T08:07:55.591Z,26.92
2017-06-20T08:09:04.557Z,26.92
2017-06-20T08:10:13.518Z,27.02
2017-06-20T08:11:22.481Z,27.07
2017-06-20T08:12:31.448Z,27.04
2017-06-20T08:13:40.713Z,27.12
2017-06-20T08:14:49.684Z,27.09
2017-06-20T08:15:58.659Z,27.14
2017-06-20T08:17:07.626Z,27.17
2017-06-20T08:18:16.597Z,27.17
2017-06-20T08:19:25.813Z,27.27
2017-06-20T08:20:34.777Z,27.27
2017-06-20T08:21:43.743Z,27.32
2017-06-20T08:22:52.712Z,27.28
2017-06-20T08:24:01.997Z,27.29
2017-06-20T08:25:11.214Z,27.31
2017-06-20T08:26:20.499Z,27.4
2017-06-20T08:27:29.468Z,27.4
2017-06-20T08:28:38.516Z,27.5
2017-06-20T08:29:47.480Z,27.5
2017-06-20T08:30:56.784Z,27.57
2017-06-20T08:32:05.757Z,27.46
2017-06-20T08:33:15.047Z,27.6
2017-06-20T08:34:24.012Z,27.62
2017-06-20T08:35:32.976Z,27.62
2017-06-20T08:36:42.337Z,27.62
2017-06-20T08:37:51.645Z,27.57
2017-06-20T08:39:00.606Z,27.74
2017-06-20T08:40:09.897Z,27.67
2017-06-20T08:41:18.865Z,27.79
2017-06-20T08:42:28.153Z,27.82
2017-06-20T08:43:37.119Z,27.82
2017-06-20T08:44:46.179Z,27.85
2017-06-20T08:45:55.153Z,27.9
2017-06-20T08:47:04.119Z,27.9
2017-06-20T08:48:13.391Z,27.87
2017-06-20T08:49:22.351Z,27.9
2017-06-20T08:50:31.406Z,28
2017-06-20T08:51:40.377Z,28.04
2017-06-20T08:52:49.342Z,28.04
2017-06-20T08:53:58.604Z,28.04
2017-06-20T08:55:07.578Z,28.02
2017-06-20T08:56:16.539Z,28.15
2017-06-20T08:57:25.514Z,28.15
2017-06-20T08:58:34.490Z,28.18
2017-06-20T08:59:43.758Z,28.15
2017-06-20T09:00:53.050Z,28.24
2017-06-20T09:02:02.016Z,28.27
2017-06-20T09:03:10.982Z,28.25
2017-06-20T09:04:19.942Z,28.27
2017-06-20T09:05:29.209Z,28.19
2017-06-20T09:06:38.175Z,28.25
2017-06-20T09:07:47.137Z,28.34
2017-06-20T09:08:56.102Z,28.31
2017-06-20T09:10:05.068Z,28.37
2017-06-20T09:11:14.286Z,28.33
2017-06-20T09:12:23.340Z,28.36
2017-06-20T09:13:32.306Z,28.29
2017-06-20T09:14:41.687Z,28.34
2017-06-20T09:15:50.663Z,28.31
2017-06-20T09:16:59.883Z,28.37
2017-06-20T09:18:08.845Z,28.29
2017-06-20T09:19:17.809Z,28.4
2017-06-20T09:20:26.780Z,28.43
2017-06-20T09:21:35.747Z,28.37
2017-06-20T09:22:44.963Z,28.3
2017-06-20T09:23:53.935Z,28.29
2017-06-20T09:25:02.906Z,28.37
2017-06-20T09:26:11.873Z,28.29
2017-06-20T09:27:20.837Z,28.39
2017-06-20T09:28:30.108Z,28.41
2017-06-20T09:29:39.074Z,28.41
2017-06-20T09:30:48.041Z,28.46
2017-06-20T09:31:57.009Z,28.43
2017-06-20T09:33:05.978Z,28.41
2017-06-20T09:34:15.263Z,28.44
2017-06-20T09:35:24.227Z,28.43
2017-06-20T09:36:33.247Z,28.46
2017-06-20T09:37:42.213Z,28.39
2017-06-20T09:38:51.522Z,28.43
2017-06-20T09:40:00.826Z,28.46
2017-06-20T09:41:09.835Z,28.43
2017-06-20T09:42:18.794Z,28.4
2017-06-20T09:43:27.761Z,28.44
2017-06-20T09:44:36.730Z,28.54
2017-06-20T09:45:45.999Z,28.52
2017-06-20T09:46:54.963Z,28.58
2017-06-20T09:48:03.938Z,28.59
2017-06-20T09:49:12.908Z,28.62
2017-06-20T09:50:21.872Z,28.58
2017-06-20T09:51:31.099Z,28.58
2017-06-20T09:52:40.067Z,28.59
2017-06-20T09:53:49.093Z,28.59
2017-06-20T09:54:58.061Z,28.58
2017-06-20T09:56:07.028Z,28.51
2017-06-20T09:57:16.328Z,28.54
2017-06-20T09:58:25.292Z,28.48
2017-06-20T09:59:34.349Z,28.49
2017-06-20T10:00:44.028Z,28.52
2017-06-20T10:01:53.105Z,28.48
2017-06-20T10:03:02.326Z,28.44
2017-06-20T10:04:11.341Z,28.54
2017-06-20T10:05:20.311Z,28.55
2017-06-20T10:06:29.378Z,28.56
2017-06-20T10:07:38.350Z,28.56
2017-06-20T10:08:47.740Z,28.61
2017-06-20T10:09:56.970Z,28.62
2017-06-20T10:11:05.937Z,28.59
2017-06-20T10:12:14.900Z,28.56
2017-06-20T10:13:23.947Z,28.51
2017-06-20T10:14:33.242Z,28.52
2017-06-20T10:15:42.209Z,28.56
2017-06-20T10:16:51.176Z,28.61
2017-06-20T10:18:00.325Z,28.66
2017-06-20T10:19:09.292Z,28.62
2017-06-20T10:20:18.511Z,28.71
2017-06-20T10:21:27.531Z,28.86
2017-06-20T10:22:36.495Z,28.8
2017-06-20T10:23:45.788Z,28.78
2017-06-20T10:24:54.751Z,28.73
2017-06-20T10:26:03.967Z,28.74
2017-06-20T10:27:12.939Z,28.64
2017-06-20T10:28:21.995Z,28.52
2017-06-20T10:29:30.992Z,28.44
2017-06-20T10:30:40.050Z,28.3
2017-06-20T10:31:49.321Z,28.31
2017-06-20T10:32:58.290Z,28.29
2017-06-20T10:34:07.342Z,28.24
2017-06-20T10:35:16.309Z,28.19
2017-06-20T10:36:25.276Z,28.19
2017-06-20T10:37:34.654Z,28.11
2017-06-20T10:38:43.894Z,28.12
2017-06-20T10:39:53.153Z,28.03
2017-06-20T10:41:02.394Z,28.12
2017-06-20T10:42:11.362Z,28.02
2017-06-20T10:43:20.722Z,28.02
2017-06-20T10:44:29.790Z,28.04
2017-06-20T10:45:39.043Z,28.02
2017-06-20T10:46:48.005Z,28.04
2017-06-20T10:47:57.116Z,28
2017-06-20T10:49:06.464Z,28.09
2017-06-20T10:50:15.676Z,28.18
2017-06-20T10:51:24.675Z,28.15
2017-06-20T10:52:33.883Z,28.06
2017-06-20T10:53:43.315Z,28.03
2017-06-20T10:54:52.777Z,27.92
2017-06-20T10:56:01.980Z,27.92
2017-06-20T10:57:11.050Z,27.88
2017-06-20T10:58:20.181Z,28.02
2017-06-20T10:59:29.244Z,28.04
2017-06-20T11:00:38.462Z,28.09
2017-06-20T11:01:47.818Z,28.14
2017-06-20T11:02:56.985Z,28.07
2017-06-20T11:04:06.005Z,28.06
2017-06-20T11:05:15.062Z,28.06
2017-06-20T11:06:24.491Z,28.06
2017-06-20T11:07:33.605Z,28.02
2017-06-20T11:08:42.628Z,28.02
2017-06-20T11:09:51.818Z,27.9
2017-06-20T11:11:00.962Z,27.88
2017-06-20T11:12:10.277Z,27.9
2017-06-20T11:13:19.270Z,27.88
2017-06-20T11:14:28.545Z,27.78
2017-06-20T11:15:37.759Z,27.82
2017-06-20T11:16:47.018Z,27.88
2017-06-20T11:17:56.385Z,27.92
2017-06-20T11:19:05.499Z,27.94
2017-06-20T11:20:14.466Z,27.92
2017-06-20T11:21:23.527Z,27.92
2017-06-20T11:22:32.585Z,27.9
2017-06-20T11:23:41.849Z,27.87
2017-06-20T11:24:50.819Z,27.82
2017-06-20T11:25:59.785Z,27.74
2017-06-20T11:27:08.753Z,27.74
2017-06-20T11:28:17.718Z,27.74
2017-06-20T11:29:27.107Z,27.65
2017-06-20T11:30:36.072Z,27.74
2017-06-20T11:31:45.047Z,27.74
2017-06-20T11:32:54.017Z,27.72
2017-06-20T11:34:02.989Z,27.66
2017-06-20T11:35:12.250Z,27.74
2017-06-20T11:36:21.218Z,27.79
2017-06-20T11:37:30.181Z,27.92
2017-06-20T11:38:39.154Z,27.82
2017-06-20T11:39:48.120Z,27.93
2017-06-20T11:40:57.385Z,27.97
2017-06-20T11:42:06.349Z,27.97
2017-06-20T11:43:15.320Z,27.97
2017-06-20T11:44:24.285Z,28.04
2017-06-20T11:45:33.382Z,28.07
2017-06-20T11:46:42.606Z,28.11
2017-06-20T11:47:51.671Z,28.09
2017-06-20T11:49:00.760Z,28.03
2017-06-20T11:50:09.874Z,28.06
2017-06-20T11:51:18.949Z,28.11
2017-06-20T11:52:28.308Z,28.07
2017-06-20T11:53:37.436Z,28.04
2017-06-20T11:54:46.566Z,27.93
2017-06-20T11:55:55.639Z,28
2017-06-20T11:57:04.767Z,27.94
2017-06-20T11:58:14.045Z,27.96
2017-06-20T11:59:23.173Z,27.96
2017-06-20T12:00:32.457Z,27.87
2017-06-20T12:01:41.608Z,27.9
2017-06-20T12:02:50.835Z,27.87
2017-06-20T12:04:00.100Z,27.92
2017-06-20T12:05:09.212Z,27.9
2017-06-20T12:06:18.212Z,27.9
2017-06-20T12:07:27.266Z,27.9
2017-06-20T12:08:36.229Z,27.9
2017-06-20T12:09:45.711Z,27.9
2017-06-20T12:10:54.702Z,27.78
2017-06-20T12:12:03.667Z,27.82
2017-06-20T12:13:12.682Z,27.77
2017-06-20T12:14:21.773Z,27.84
2017-06-20T12:15:31.210Z,27.82
2017-06-20T12:16:40.355Z,27.81
2017-06-20T12:17:49.536Z,27.77
2017-06-20T12:18:58.508Z,27.9
2017-06-20T12:20:07.800Z,27.82
2017-06-20T12:21:17.297Z,27.82
2017-06-20T12:22:26.445Z,27.87
2017-06-20T12:23:35.530Z,27.92
2017-06-20T12:24:44.494Z,27.88
2017-06-20T12:25:53.632Z,28.06
2017-06-20T12:27:02.916Z,28.11
2017-06-20T12:28:11.884Z,28.19
2017-06-20T12:29:21.316Z,28.17
2017-06-20T12:30:30.677Z,28.12
2017-06-20T12:31:39.824Z,28.06
2017-06-20T12:32:49.345Z,28.14
2017-06-20T12:33:58.851Z,28.17
2017-06-20T12:35:07.961Z,28.18
2017-06-20T12:36:17.066Z,28.21
2017-06-20T12:37:26.096Z,28.18
2017-06-20T12:38:35.748Z,28.18
2017-06-20T12:39:45.098Z,28.11
2017-06-20T12:40:54.512Z,28.11
2017-06-20T12:42:03.643Z,28.19
2017-06-20T12:43:12.783Z,28.12
2017-06-20T12:44:22.171Z,28.15
2017-06-20T12:45:31.152Z,28.12
2017-06-20T12:46:40.914Z,28.04
2017-06-20T12:47:50.042Z,28.04
2017-06-20T12:48:59.238Z,28
2017-06-20T12:50:08.509Z,28.03
2017-06-20T12:51:17.557Z,28.09
2017-06-20T12:52:26.527Z,28.06
2017-06-20T12:53:36.278Z,28.07
2017-06-20T12:54:45.601Z,28.12
2017-06-20T12:55:54.951Z,28.03
2017-06-20T12:57:04.061Z,28.03
2017-06-20T12:58:13.180Z,27.93
2017-06-20T12:59:22.361Z,27.9
2017-06-20T13:00:31.458Z,27.93
2017-06-20T13:01:40.860Z,27.99
2017-06-20T13:02:49.939Z,27.99
2017-06-20T13:03:59.398Z,28.06
2017-06-20T13:05:08.556Z,28.04
2017-06-20T13:06:17.677Z,28.03
2017-06-20T13:07:27.027Z,28.06
2017-06-20T13:08:35.996Z,28.03
2017-06-20T13:09:45.395Z,28.06
2017-06-20T13:10:54.589Z,28.14
2017-06-20T13:12:03.935Z,28.15
2017-06-20T13:13:13.158Z,28.15
2017-06-20T13:14:22.240Z,28.18
2017-06-20T13:15:31.359Z,28.17
2017-06-20T13:16:40.587Z,28.14
2017-06-20T13:17:49.754Z,28.15
2017-06-20T13:18:59.453Z,28.14
2017-06-20T13:20:08.662Z,28.19
2017-06-20T13:21:17.872Z,28.09
2017-06-20T13:22:26.942Z,28.04
2017-06-20T13:23:36.021Z,28.02
2017-06-20T13:24:45.536Z,28.07
2017-06-20T13:25:54.572Z,28
2017-06-20T13:27:03.546Z,28.09
2017-06-20T13:28:12.570Z,28.06
2017-06-20T13:29:21.798Z,28.07
2017-06-20T13:30:31.205Z,28.07
2017-06-20T13:31:40.171Z,28.09
2017-06-20T13:32:49.146Z,28
2017-06-20T13:33:58.393Z,28.09
2017-06-20T13:35:07.357Z,28.03
2017-06-20T13:36:16.789Z,28.02
2017-06-20T13:37:25.758Z,28.04
2017-06-20T13:38:34.813Z,28.03
2017-06-20T13:39:43.800Z,28.02
2017-06-20T13:40:53.228Z,27.97
2017-06-20T13:42:02.668Z,27.97
2017-06-20T13:43:11.639Z,27.92
2017-06-20T13:44:20.699Z,27.94
2017-06-20T13:45:29.881Z,27.87
2017-06-20T13:46:38.931Z,27.9
2017-06-20T13:47:48.254Z,27.9
2017-06-20T13:48:57.309Z,27.84
2017-06-20T13:50:06.278Z,27.81
2017-06-20T13:51:15.241Z,27.82
2017-06-20T13:52:24.303Z,27.85
2017-06-20T13:53:33.521Z,27.78
2017-06-20T13:54:42.490Z,27.88
2017-06-20T13:55:51.455Z,27.84
2017-06-20T13:57:00.419Z,27.87
2017-06-20T13:58:09.382Z,27.99
2017-06-20T13:59:18.599Z,27.93
2017-06-20T14:00:27.899Z,27.94
2017-06-20T14:01:36.877Z,27.94
2017-06-20T14:02:45.997Z,27.88
2017-06-20T14:03:54.963Z,27.96
2017-06-20T14:05:04.264Z,27.96
2017-06-20T14:06:13.424Z,27.94
2017-06-20T14:07:22.547Z,27.96
2017-06-20T14:08:31.839Z,27.97
2017-06-20T14:09:41.292Z,27.93
2017-06-20T14:10:50.505Z,27.99
2017-06-20T14:11:59.525Z,27.99
2017-06-20T14:13:08.672Z,28.03
2017-06-20T14:14:17.676Z,28.02
2017-06-20T14:15:26.824Z,28.04
2017-06-20T14:16:36.140Z,28.03
2017-06-20T14:17:45.179Z,28.07
2017-06-20T14:18:54.176Z,28.09
2017-06-20T14:20:03.158Z,28.07
2017-06-20T14:21:12.215Z,28.02
2017-06-20T14:22:21.440Z,28.07
2017-06-20T14:23:30.411Z,27.99
2017-06-20T14:24:39.383Z,28
2017-06-20T14:25:48.372Z,28.07
2017-06-20T14:26:57.339Z,28.11
2017-06-20T14:28:06.614Z,28.03
2017-06-20T14:29:15.584Z,28
2017-06-20T14:30:24.548Z,27.99
2017-06-20T14:31:33.512Z,28.03
2017-06-20T14:32:42.477Z,28.04
2017-06-20T14:33:51.745Z,28.06
2017-06-20T14:35:00.713Z,28.06
2017-06-20T14:36:09.684Z,27.99
2017-06-20T14:37:18.646Z,28.03
2017-06-20T14:38:27.623Z,27.99
2017-06-20T14:39:37.165Z,27.93
2017-06-20T14:40:46.134Z,27.96
2017-06-20T14:41:55.192Z,27.9
2017-06-20T14:43:04.156Z,27.88
2017-06-20T14:44:13.119Z,27.93
2017-06-20T14:45:22.331Z,27.97
2017-06-20T14:46:31.294Z,27.99
2017-06-20T14:47:40.402Z,27.92
2017-06-20T14:48:49.560Z,28
2017-06-20T14:49:58.534Z,27.9
2017-06-20T14:51:07.807Z,27.92
2017-06-20T14:52:17.103Z,27.94
2017-06-20T14:53:26.154Z,27.93
2017-06-20T14:54:35.119Z,27.88